Time;durP1;ratioP1;P1;durP2;ratioP2;P2;SDS_P1;SDS_P2;PMS_P1;PMS_P2;Temp;Humidity;BMP_temperature;BMP_pressure;BME280_temperature;BME280_humidity;BME280_pressure;Samples;Min_cycle;Max_cycle;Signal;HPM_P1;HPM_P2
2023/01/27 00:00:41;;;;;;;22.23;14.88;;;;;;;;;;5063383;28;20205;-67
2023/01/27 00:03:09;;;;;;;26.42;17.63;;;;;;;;;;5063187;28;20258;-67
2023/01/27 00:05:36;;;;;;;24.65;17.05;;;;;;;;;;5063052;28;20201;-66
2023/01/27 00:08:02;;;;;;;25.90;17.63;;;;;;;;;;5062903;28;20223;-67
2023/01/27 00:10:28;;;;;;;27.48;17.77;;;;;;;;;;5063254;28;20334;-66
2023/01/27 00:15:39;;;;;;;26.27;18.35;;;;;;;;;;5062904;28;20204;-66
2023/01/27 00:18:07;;;;;;;25.00;17.88;;;;;;;;;;5062467;28;20209;-67
2023/01/27 00:26:05;;;;;;;22.27;15.63;;;;;;;;;;5061651;28;20204;-67
2023/01/27 00:28:31;;;;;;;23.33;16.10;;;;;;;;;;5062324;28;20537;-67
2023/01/27 00:30:58;;;;;;;25.77;16.60;;;;;;;;;;5063076;28;20247;-67
2023/01/27 00:33:25;;;;;;;25.65;17.85;;;;;;;;;;5062571;28;20524;-67
2023/01/27 00:35:59;;;;;;;20.67;15.93;;;;;;;;;;5062532;28;20205;-67
2023/01/27 00:38:25;;;;;;;21.58;16.05;;;;;;;;;;5062268;28;20528;-67
2023/01/27 00:43:31;;;;;;;23.95;16.85;;;;;;;;;;5062150;28;20425;-67
2023/01/27 00:45:58;;;;;;;23.17;15.40;;;;;;;;;;5062434;28;20732;-67
2023/01/27 00:48:25;;;;;;;23.63;16.55;;;;;;;;;;5061987;28;20197;-67
2023/01/27 00:50:51;;;;;;;26.35;16.80;;;;;;;;;;5062168;28;20239;-67
2023/01/27 00:53:18;;;;;;;22.52;15.98;;;;;;;;;;5062255;28;20213;-66
2023/01/27 00:55:46;;;;;;;23.27;15.98;;;;;;;;;;5061939;28;20204;-67
2023/01/27 00:58:12;;;;;;;22.67;16.33;;;;;;;;;;5061986;28;20306;-67
2023/01/27 01:00:38;;;;;;;20.17;15.98;;;;;;;;;;5062253;28;20201;-67
2023/01/27 01:03:04;;;;;;;24.08;15.35;;;;;;;;;;5062021;28;20377;-67
2023/01/27 01:05:32;;;;;;;25.42;16.95;;;;;;;;;;5062549;28;20496;-67
2023/01/27 01:07:58;;;;;;;25.33;17.50;;;;;;;;;;5061605;28;20209;-67
2023/01/27 01:10:25;;;;;;;28.63;19.08;;;;;;;;;;5061975;28;20243;-67
2023/01/27 01:12:51;;;;;;;25.05;18.13;;;;;;;;;;5061884;28;20205;-66
2023/01/27 01:15:17;;;;;;;25.52;17.92;;;;;;;;;;5061964;28;20235;-66
2023/01/27 01:17:43;;;;;;;28.35;18.73;;;;;;;;;;5061856;28;20200;-67
2023/01/27 01:20:10;;;;;;;28.27;18.88;;;;;;;;;;5061766;28;20219;-67
2023/01/27 01:22:38;;;;;;;28.33;19.17;;;;;;;;;;5061673;28;20234;-67
2023/01/27 01:25:06;;;;;;;26.50;18.58;;;;;;;;;;5061665;28;20336;-67
2023/01/27 01:27:33;;;;;;;28.63;18.65;;;;;;;;;;5061678;28;20274;-67
2023/01/27 01:29:59;;;;;;;23.40;16.38;;;;;;;;;;5061352;28;20197;-67
2023/01/27 01:32:26;;;;;;;23.65;16.08;;;;;;;;;;5061764;28;20204;-67
2023/01/27 01:34:52;;;;;;;25.45;17.10;;;;;;;;;;5061497;28;20474;-67
2023/01/27 01:37:18;;;;;;;23.20;16.38;;;;;;;;;;5061217;28;20204;-67
2023/01/27 01:39:46;;;;;;;24.42;16.60;;;;;;;;;;5061616;28;20433;-67
2023/01/27 01:42:12;;;;;;;22.83;15.77;;;;;;;;;;5061380;28;20224;-67
2023/01/27 01:44:43;;;;;;;25.23;15.93;;;;;;;;;;5061823;28;20496;-67
2023/01/27 01:47:10;;;;;;;18.92;15.25;;;;;;;;;;5061633;28;20266;-67
2023/01/27 01:49:39;;;;;;;20.60;15.73;;;;;;;;;;5061216;28;20509;-67
2023/01/27 01:52:07;;;;;;;23.63;16.42;;;;;;;;;;5061350;28;20208;-67
2023/01/27 01:54:34;;;;;;;22.77;16.20;;;;;;;;;;5061510;28;20271;-67
2023/01/27 01:57:03;;;;;;;22.40;15.10;;;;;;;;;;5061349;28;20434;-67
2023/01/27 01:59:31;;;;;;;21.98;15.43;;;;;;;;;;5061145;28;20224;-67
2023/01/27 02:01:59;;;;;;;22.88;15.48;;;;;;;;;;5061297;28;20207;-67
2023/01/27 02:04:27;;;;;;;22.50;15.77;;;;;;;;;;5061337;28;20193;-67
2023/01/27 02:06:56;;;;;;;23.10;16.05;;;;;;;;;;5061132;28;20205;-67
2023/01/27 02:09:22;;;;;;;22.95;16.02;;;;;;;;;;5061322;28;20564;-67
2023/01/27 02:11:49;;;;;;;23.42;15.93;;;;;;;;;;5061297;28;20240;-67
2023/01/27 02:14:17;;;;;;;27.90;16.48;;;;;;;;;;5053314;28;20213;-67
2023/01/27 02:16:44;;;;;;;26.20;15.98;;;;;;;;;;5061227;28;20252;-67
2023/01/27 02:19:12;;;;;;;25.98;16.10;;;;;;;;;;5061037;28;20843;-67
2023/01/27 02:21:38;;;;;;;25.33;16.40;;;;;;;;;;5061455;28;20201;-67
2023/01/27 02:24:09;;;;;;;25.42;16.15;;;;;;;;;;5060873;28;20211;-67
2023/01/27 02:26:38;;;;;;;27.77;17.67;;;;;;;;;;5061065;28;20211;-67
2023/01/27 02:29:06;;;;;;;23.88;16.73;;;;;;;;;;5060688;28;20221;-67
2023/01/27 02:31:32;;;;;;;26.10;16.90;;;;;;;;;;5061091;28;20228;-67
2023/01/27 02:34:01;;;;;;;20.92;15.27;;;;;;;;;;5061045;28;20278;-67
2023/01/27 02:36:29;;;;;;;26.02;17.02;;;;;;;;;;5061118;28;20243;-67
2023/01/27 02:38:56;;;;;;;24.10;16.17;;;;;;;;;;5060627;28;20193;-67
2023/01/27 02:41:25;;;;;;;24.27;15.73;;;;;;;;;;5061088;28;20220;-67
2023/01/27 02:43:53;;;;;;;24.67;15.63;;;;;;;;;;5060754;28;20242;-67
2023/01/27 02:46:19;;;;;;;23.05;15.88;;;;;;;;;;5060971;28;20196;-67
2023/01/27 02:48:45;;;;;;;27.05;17.73;;;;;;;;;;5061651;28;20201;-66
2023/01/27 02:51:12;;;;;;;25.25;16.23;;;;;;;;;;5064369;28;20235;-66
2023/01/27 02:53:38;;;;;;;29.70;17.77;;;;;;;;;;5064394;28;20224;-66
2023/01/27 02:56:05;;;;;;;26.98;16.00;;;;;;;;;;5064466;28;20201;-67
2023/01/27 02:58:31;;;;;;;25.75;15.98;;;;;;;;;;5064399;28;20201;-67
2023/01/27 03:00:59;;;;;;;27.25;15.98;;;;;;;;;;5064439;28;20208;-66
2023/01/27 03:03:25;;;;;;;25.77;15.55;;;;;;;;;;5064267;28;20208;-66
2023/01/27 03:05:52;;;;;;;23.65;14.90;;;;;;;;;;5064237;28;20201;-66
2023/01/27 03:08:18;;;;;;;26.02;16.00;;;;;;;;;;5063932;28;20206;-66
2023/01/27 03:10:44;;;;;;;23.20;15.25;;;;;;;;;;5064082;28;20211;-66
2023/01/27 03:13:10;;;;;;;26.90;15.98;;;;;;;;;;5064284;28;20377;-66
2023/01/27 03:18:22;;;;;;;31.05;17.90;;;;;;;;;;5056487;28;20204;-66
2023/01/27 03:20:49;;;;;;;31.25;18.23;;;;;;;;;;5063866;28;20273;-67
2023/01/27 03:23:16;;;;;;;30.08;18.80;;;;;;;;;;5055691;28;20205;-67
2023/01/27 03:25:42;;;;;;;29.13;17.88;;;;;;;;;;5063859;28;20269;-67
2023/01/27 03:28:08;;;;;;;26.17;16.67;;;;;;;;;;5063554;28;20224;-67
2023/01/27 03:30:35;;;;;;;22.63;14.77;;;;;;;;;;5063840;28;20212;-67
2023/01/27 03:33:02;;;;;;;23.13;15.00;;;;;;;;;;5063564;28;20197;-67
2023/01/27 03:35:37;;;;;;;23.10;14.52;;;;;;;;;;5063868;28;20220;-66
2023/01/27 03:46:17;;;;;;;24.98;16.05;;;;;;;;;;5055486;28;20247;-66
2023/01/27 03:48:44;;;;;;;26.98;16.92;;;;;;;;;;5063234;28;20259;-67
2023/01/27 03:51:11;;;;;;;28.02;17.90;;;;;;;;;;5063430;28;20242;-67
2023/01/27 03:53:38;;;;;;;25.40;16.83;;;;;;;;;;5063286;28;20508;-67
2023/01/27 03:56:05;;;;;;;23.95;16.38;;;;;;;;;;5063191;28;20217;-67
2023/01/27 03:58:32;;;;;;;23.73;15.77;;;;;;;;;;5063229;28;20212;-67
2023/01/27 04:00:59;;;;;;;21.42;14.90;;;;;;;;;;5063236;28;20239;-67
2023/01/27 04:08:57;;;;;;;23.10;15.68;;;;;;;;;;5062842;28;20212;-67
2023/01/27 04:14:08;;;;;;;27.73;17.02;;;;;;;;;;5062911;28;20296;-66
2023/01/27 04:16:35;;;;;;;25.42;17.80;;;;;;;;;;5063030;28;20209;-66
2023/01/27 04:19:02;;;;;;;23.58;15.45;;;;;;;;;;5062919;28;20225;-66
2023/01/27 04:21:29;;;;;;;26.65;16.70;;;;;;;;;;5063078;28;20513;-67
2023/01/27 04:23:56;;;;;;;25.50;17.30;;;;;;;;;;5062907;28;20212;-67
2023/01/27 04:26:23;;;;;;;26.98;17.45;;;;;;;;;;5062589;28;20197;-67
2023/01/27 04:28:49;;;;;;;25.48;16.63;;;;;;;;;;5062483;28;20220;-67
2023/01/27 04:31:16;;;;;;;34.17;20.05;;;;;;;;;;5062639;28;20197;-67
2023/01/27 04:33:42;;;;;;;37.03;22.95;;;;;;;;;;5062640;28;20660;-67
2023/01/27 04:36:09;;;;;;;32.60;20.67;;;;;;;;;;5062695;28;20537;-67
2023/01/27 04:38:36;;;;;;;33.55;22.13;;;;;;;;;;5062450;28;20231;-67
2023/01/27 04:41:03;;;;;;;29.10;20.05;;;;;;;;;;5063037;28;20201;-67
2023/01/27 04:43:29;;;;;;;30.00;21.35;;;;;;;;;;5062488;28;20201;-67
2023/01/27 04:45:55;;;;;;;31.40;20.73;;;;;;;;;;5062344;28;20424;-66
2023/01/27 04:48:21;;;;;;;29.23;18.85;;;;;;;;;;5061908;28;20504;-66
2023/01/27 04:50:47;;;;;;;28.05;19.23;;;;;;;;;;5062503;28;20525;-66
2023/01/27 04:53:14;;;;;;;29.60;19.17;;;;;;;;;;5062154;28;20501;-67
2023/01/27 04:55:43;;;;;;;28.15;18.92;;;;;;;;;;5062101;28;20217;-67
2023/01/27 04:58:09;;;;;;;26.35;17.55;;;;;;;;;;5062001;28;20216;-67
2023/01/27 05:00:36;;;;;;;32.40;18.67;;;;;;;;;;5062083;28;20200;-66
2023/01/27 05:03:04;;;;;;;25.73;17.13;;;;;;;;;;5061781;28;20201;-67
2023/01/27 05:05:30;;;;;;;29.15;19.63;;;;;;;;;;5062212;28;20235;-67
2023/01/27 05:07:56;;;;;;;28.08;17.90;;;;;;;;;;5062294;28;20433;-67
2023/01/27 05:10:23;;;;;;;27.58;17.95;;;;;;;;;;5062319;28;20205;-67
2023/01/27 05:12:50;;;;;;;30.98;18.73;;;;;;;;;;5061692;28;20268;-66
2023/01/27 05:15:16;;;;;;;28.45;18.60;;;;;;;;;;5053887;28;20217;-67
2023/01/27 05:17:43;;;;;;;32.60;19.73;;;;;;;;;;5061964;28;20209;-67
2023/01/27 05:20:10;;;;;;;26.30;17.48;;;;;;;;;;5062115;28;20209;-67
2023/01/27 05:22:36;;;;;;;27.05;17.73;;;;;;;;;;5061881;28;20200;-67
2023/01/27 05:25:02;;;;;;;26.70;17.65;;;;;;;;;;5061967;28;20223;-67
2023/01/27 05:27:29;;;;;;;23.92;15.85;;;;;;;;;;5061563;28;20213;-67
2023/01/27 05:29:57;;;;;;;21.92;14.45;;;;;;;;;;5061967;28;20201;-67
2023/01/27 05:32:23;;;;;;;24.83;16.02;;;;;;;;;;5061922;28;20205;-67
2023/01/27 05:34:49;;;;;;;22.50;15.25;;;;;;;;;;5062144;28;20220;-67
2023/01/27 05:37:16;;;;;;;22.17;14.95;;;;;;;;;;5061820;28;20475;-67
2023/01/27 05:39:42;;;;;;;22.40;15.70;;;;;;;;;;5061619;28;20262;-67
2023/01/27 05:42:08;;;;;;;22.52;15.48;;;;;;;;;;5061883;28;20201;-67
2023/01/27 05:44:35;;;;;;;24.05;15.52;;;;;;;;;;5061808;28;20206;-67
2023/01/27 05:47:02;;;;;;;22.98;15.77;;;;;;;;;;5061537;28;20213;-67
2023/01/27 05:49:29;;;;;;;24.92;16.38;;;;;;;;;;5061432;28;20205;-67
2023/01/27 05:51:55;;;;;;;24.95;16.30;;;;;;;;;;5061615;28;20251;-67
2023/01/27 05:54:21;;;;;;;21.98;15.52;;;;;;;;;;5061598;28;20196;-67
2023/01/27 05:56:47;;;;;;;22.60;14.60;;;;;;;;;;5061528;28;20212;-67
2023/01/27 05:59:13;;;;;;;23.73;15.75;;;;;;;;;;5061144;28;20235;-67
2023/01/27 06:01:40;;;;;;;24.20;15.48;;;;;;;;;;5061741;28;20215;-67
2023/01/27 06:04:07;;;;;;;24.50;15.75;;;;;;;;;;5061520;28;20201;-67
2023/01/27 06:06:34;;;;;;;22.13;15.90;;;;;;;;;;5061511;28;20197;-67
2023/01/27 06:09:00;;;;;;;21.05;15.25;;;;;;;;;;5061189;28;20201;-67
2023/01/27 06:11:27;;;;;;;25.08;16.95;;;;;;;;;;5061329;28;20239;-67
2023/01/27 06:13:53;;;;;;;23.52;15.73;;;;;;;;;;5061211;28;20247;-67
2023/01/27 06:16:20;;;;;;;23.05;16.10;;;;;;;;;;5061361;28;20221;-67
2023/01/27 06:18:47;;;;;;;27.38;17.45;;;;;;;;;;5061195;28;20539;-67
2023/01/27 06:21:15;;;;;;;28.83;18.77;;;;;;;;;;5061161;28;20197;-67
2023/01/27 06:23:42;;;;;;;29.25;19.17;;;;;;;;;;5061884;28;20272;-67
2023/01/27 06:26:09;;;;;;;27.50;18.55;;;;;;;;;;5064947;28;20247;-67
2023/01/27 06:28:35;;;;;;;36.47;22.45;;;;;;;;;;5064953;28;20423;-67
2023/01/27 06:31:05;;;;;;;30.58;18.20;;;;;;;;;;5065081;28;20210;-67
2023/01/27 06:33:31;;;;;;;30.15;19.20;;;;;;;;;;5065071;28;20197;-67
2023/01/27 06:36:00;;;;;;;36.42;19.80;;;;;;;;;;5064761;28;20282;-67
2023/01/27 06:38:28;;;;;;;24.83;17.33;;;;;;;;;;5064814;28;20388;-67
2023/01/27 06:40:54;;;;;;;25.75;16.88;;;;;;;;;;5064817;28;20263;-68
2023/01/27 06:43:20;;;;;;;26.10;16.90;;;;;;;;;;5064911;28;20236;-68
2023/01/27 06:45:48;;;;;;;28.77;18.15;;;;;;;;;;5065007;28;20501;-68
2023/01/27 06:48:15;;;;;;;28.98;19.05;;;;;;;;;;5057091;28;20213;-68
2023/01/27 06:50:41;;;;;;;31.08;23.20;;;;;;;;;;5056570;28;20451;-58
2023/01/27 06:53:07;;;;;;;29.58;20.33;;;;;;;;;;5057872;28;20213;-59
2023/01/27 06:55:40;;;;;;;28.70;18.73;;;;;;;;;;5058936;28;20229;-58
2023/01/27 06:58:06;;;;;;;29.88;17.92;;;;;;;;;;5046810;28;20217;-56
2023/01/27 07:00:32;;;;;;;26.27;17.60;;;;;;;;;;5046254;28;20263;-58
2023/01/27 07:02:58;;;;;;;25.25;16.67;;;;;;;;;;5043465;28;20227;-57
2023/01/27 07:05:25;;;;;;;28.27;16.88;;;;;;;;;;5047929;28;20222;-57
2023/01/27 07:07:51;;;;;;;25.58;16.65;;;;;;;;;;5053217;28;20221;-57
2023/01/27 07:10:18;;;;;;;23.38;16.30;;;;;;;;;;5046256;28;20220;-56
2023/01/27 07:12:45;;;;;;;22.58;14.98;;;;;;;;;;5047990;28;20516;-57
2023/01/27 07:15:12;;;;;;;23.80;14.45;;;;;;;;;;5049162;28;20252;-57
2023/01/27 07:17:38;;;;;;;24.55;15.13;;;;;;;;;;5046099;28;20225;-56
2023/01/27 07:20:05;;;;;;;23.00;15.55;;;;;;;;;;5055140;28;20547;-56
2023/01/27 07:22:31;;;;;;;22.95;15.82;;;;;;;;;;5049076;28;20212;-56
2023/01/27 07:24:58;;;;;;;21.17;14.35;;;;;;;;;;5047103;28;20218;-59
2023/01/27 07:27:24;;;;;;;19.48;13.27;;;;;;;;;;5053922;28;20257;-58
2023/01/27 07:29:52;;;;;;;18.35;12.73;;;;;;;;;;5047565;28;20244;-58
2023/01/27 07:32:18;;;;;;;16.23;11.38;;;;;;;;;;5048134;28;20213;-58
2023/01/27 07:34:44;;;;;;;14.90;11.10;;;;;;;;;;5042244;28;20313;-58
2023/01/27 07:37:11;;;;;;;17.02;11.02;;;;;;;;;;5046914;28;20218;-57
2023/01/27 07:39:37;;;;;;;18.83;12.73;;;;;;;;;;5045399;28;20263;-57
2023/01/27 07:42:04;;;;;;;24.05;15.02;;;;;;;;;;5053625;28;20217;-58
2023/01/27 07:44:30;;;;;;;22.45;14.05;;;;;;;;;;5050682;28;20217;-57
2023/01/27 07:46:59;;;;;;;22.70;15.35;;;;;;;;;;5056935;28;20217;-59
2023/01/27 07:49:25;;;;;;;24.98;15.45;;;;;;;;;;5054292;28;20251;-58
2023/01/27 07:51:52;;;;;;;22.48;14.88;;;;;;;;;;5041120;28;20260;-58
2023/01/27 07:54:18;;;;;;;23.50;14.38;;;;;;;;;;5048246;28;20644;-57
2023/01/27 07:56:45;;;;;;;19.55;13.77;;;;;;;;;;5047565;28;20453;-57
2023/01/27 07:59:11;;;;;;;17.20;12.55;;;;;;;;;;5042617;28;20218;-59
2023/01/27 08:01:40;;;;;;;20.35;13.68;;;;;;;;;;5056259;28;20471;-58
2023/01/27 08:04:07;;;;;;;21.08;14.38;;;;;;;;;;5051602;28;20217;-57
2023/01/27 08:06:33;;;;;;;21.60;14.30;;;;;;;;;;5056124;28;20577;-57
2023/01/27 08:09:00;;;;;;;21.20;14.35;;;;;;;;;;5046919;28;20240;-57
2023/01/27 08:11:26;;;;;;;21.88;14.50;;;;;;;;;;5054370;28;20220;-58
2023/01/27 08:13:52;;;;;;;19.73;13.85;;;;;;;;;;5040446;28;20259;-58
2023/01/27 08:16:18;;;;;;;20.30;14.10;;;;;;;;;;5051361;28;20224;-57
2023/01/27 08:18:45;;;;;;;18.83;12.98;;;;;;;;;;5048032;28;20552;-58
2023/01/27 08:21:12;;;;;;;18.98;12.98;;;;;;;;;;5046640;28;20213;-57
2023/01/27 08:23:39;;;;;;;18.60;12.85;;;;;;;;;;5055872;28;20224;-57
2023/01/27 08:26:06;;;;;;;17.00;12.23;;;;;;;;;;5054132;28;20209;-58
2023/01/27 08:28:33;;;;;;;14.77;11.40;;;;;;;;;;5046699;28;20598;-58
2023/01/27 08:31:03;;;;;;;15.88;11.63;;;;;;;;;;5055097;28;20458;-58
2023/01/27 08:33:30;;;;;;;14.88;11.77;;;;;;;;;;5056164;28;20213;-58
2023/01/27 08:35:56;;;;;;;17.70;12.85;;;;;;;;;;5043416;28;20468;-58
2023/01/27 08:38:23;;;;;;;13.63;11.25;;;;;;;;;;5055419;28;20209;-58
2023/01/27 08:40:50;;;;;;;15.88;11.88;;;;;;;;;;5055407;28;20221;-59
2023/01/27 08:43:16;;;;;;;15.10;11.18;;;;;;;;;;5056068;28;20216;-58
2023/01/27 08:45:44;;;;;;;15.50;11.05;;;;;;;;;;5051202;28;20513;-56
2023/01/27 08:48:10;;;;;;;14.90;11.27;;;;;;;;;;5045663;28;20456;-58
2023/01/27 08:50:36;;;;;;;14.68;11.18;;;;;;;;;;5055395;28;20263;-57
2023/01/27 08:53:03;;;;;;;12.57;10.38;;;;;;;;;;5054668;28;20224;-58
2023/01/27 08:55:32;;;;;;;13.35;11.07;;;;;;;;;;5050321;28;20312;-58
2023/01/27 08:57:58;;;;;;;14.25;11.45;;;;;;;;;;5046035;28;20212;-57
2023/01/27 09:00:25;;;;;;;14.93;11.60;;;;;;;;;;5051187;28;20267;-57
2023/01/27 09:02:51;;;;;;;17.00;11.43;;;;;;;;;;5043762;28;20443;-58
2023/01/27 09:05:18;;;;;;;16.42;11.70;;;;;;;;;;5046490;28;20263;-59
2023/01/27 09:07:45;;;;;;;20.73;13.68;;;;;;;;;;5050951;28;20217;-57
2023/01/27 09:10:11;;;;;;;16.65;12.38;;;;;;;;;;5045730;28;20209;-58
2023/01/27 09:12:39;;;;;;;19.75;12.75;;;;;;;;;;5045698;28;20626;-57
2023/01/27 09:15:06;;;;;;;18.60;12.63;;;;;;;;;;5052580;28;20212;-58
2023/01/27 09:17:32;;;;;;;19.25;13.30;;;;;;;;;;5054623;28;20262;-58
2023/01/27 09:19:58;;;;;;;21.55;13.68;;;;;;;;;;5054079;28;20213;-57
2023/01/27 09:22:24;;;;;;;19.15;13.65;;;;;;;;;;5053728;28;20209;-57
2023/01/27 09:24:51;;;;;;;19.73;14.35;;;;;;;;;;5051463;28;20594;-58
2023/01/27 09:27:17;;;;;;;19.73;14.07;;;;;;;;;;5050118;28;20432;-57
2023/01/27 09:29:44;;;;;;;19.98;13.55;;;;;;;;;;5042354;28;20549;-56
2023/01/27 09:32:11;;;;;;;22.52;14.85;;;;;;;;;;5054142;28;20255;-57
2023/01/27 09:34:37;;;;;;;22.30;14.38;;;;;;;;;;5046783;28;20367;-58
2023/01/27 09:37:07;;;;;;;26.05;15.73;;;;;;;;;;5051407;28;20467;-58
2023/01/27 09:39:35;;;;;;;25.10;15.90;;;;;;;;;;5046702;28;20263;-57
2023/01/27 09:42:11;;;;;;;21.15;14.27;;;;;;;;;;5045917;28;20547;-57
2023/01/27 09:44:59;;;;;;;23.08;14.88;;;;;;;;;;5054278;28;20254;-58
2023/01/27 09:47:34;;;;;;;22.52;14.88;;;;;;;;;;5041183;28;20209;-57
2023/01/27 09:50:20;;;;;;;23.90;14.63;;;;;;;;;;5055288;28;20258;-58
2023/01/27 09:53:00;;;;;;;26.30;15.70;;;;;;;;;;5054880;28;20213;-58
2023/01/27 09:55:32;;;;;;;23.67;13.88;;;;;;;;;;5047844;28;20209;-58
2023/01/27 09:58:02;;;;;;;26.52;15.45;;;;;;;;;;5049911;28;20213;-58
2023/01/27 10:00:36;;;;;;;24.67;15.43;;;;;;;;;;5057694;28;20216;-58
2023/01/27 10:03:17;;;;;;;26.17;15.57;;;;;;;;;;5058094;28;20209;-58
2023/01/27 10:05:59;;;;;;;24.10;14.63;;;;;;;;;;5045194;28;20217;-58
2023/01/27 10:08:35;;;;;;;23.45;14.70;;;;;;;;;;5041661;28;20255;-56
2023/01/27 10:11:08;;;;;;;24.85;14.57;;;;;;;;;;5056230;28;20496;-58
2023/01/27 10:13:39;;;;;;;22.02;13.82;;;;;;;;;;5058533;28;20386;-58
2023/01/27 10:16:16;;;;;;;25.88;14.57;;;;;;;;;;5052023;28;20226;-56
2023/01/27 10:18:49;;;;;;;23.92;14.60;;;;;;;;;;5058231;28;20220;-58
2023/01/27 10:21:19;;;;;;;26.10;14.43;;;;;;;;;;5058397;28;20240;-57
2023/01/27 10:23:51;;;;;;;21.75;13.48;;;;;;;;;;5058057;28;20263;-57
2023/01/27 10:26:21;;;;;;;21.17;14.15;;;;;;;;;;5056501;28;20228;-58
2023/01/27 10:28:49;;;;;;;22.92;14.57;;;;;;;;;;5051925;28;20572;-58
2023/01/27 10:31:20;;;;;;;22.30;14.00;;;;;;;;;;5054641;28;20282;-57
2023/01/27 10:33:55;;;;;;;22.65;14.40;;;;;;;;;;5052066;28;20255;-57
2023/01/27 10:36:25;;;;;;;21.67;13.15;;;;;;;;;;5058612;28;20278;-58
2023/01/27 10:38:59;;;;;;;21.75;14.13;;;;;;;;;;5047910;28;20598;-57
2023/01/27 10:41:29;;;;;;;19.95;12.48;;;;;;;;;;5050668;28;20250;-57
2023/01/27 10:44:01;;;;;;;20.98;13.43;;;;;;;;;;5057924;28;20217;-58
2023/01/27 10:46:32;;;;;;;19.63;12.68;;;;;;;;;;5051470;28;20205;-58
2023/01/27 10:49:01;;;;;;;21.38;12.48;;;;;;;;;;5057596;28;20597;-58
2023/01/27 10:51:30;;;;;;;22.20;12.52;;;;;;;;;;5057736;28;20231;-58
2023/01/27 10:53:59;;;;;;;21.13;13.45;;;;;;;;;;5050582;28;20216;-58
2023/01/27 10:56:29;;;;;;;20.88;12.57;;;;;;;;;;5058150;28;20299;-58
2023/01/27 10:58:58;;;;;;;23.20;13.75;;;;;;;;;;5041181;28;20213;-58
2023/01/27 11:01:28;;;;;;;19.83;13.27;;;;;;;;;;5049279;28;20225;-56
2023/01/27 11:03:58;;;;;;;18.63;12.55;;;;;;;;;;5054046;28;20205;-56
2023/01/27 11:06:27;;;;;;;19.48;12.45;;;;;;;;;;5052918;28;20244;-54
2023/01/27 11:08:56;;;;;;;23.48;13.52;;;;;;;;;;5046559;28;20255;-55
2023/01/27 11:14:12;;;;;;;19.30;12.15;;;;;;;;;;5056651;28;20220;-56
2023/01/27 11:16:39;;;;;;;17.63;12.30;;;;;;;;;;5055956;28;20239;-56
2023/01/27 11:19:14;;;;;;;19.20;11.88;;;;;;;;;;5057035;28;20443;-57
2023/01/27 11:21:41;;;;;;;18.17;12.05;;;;;;;;;;5057237;28;20208;-56
2023/01/27 11:24:14;;;;;;;17.77;11.68;;;;;;;;;;5056518;28;20217;-54
2023/01/27 11:26:42;;;;;;;19.85;12.00;;;;;;;;;;5051904;28;20279;-56
2023/01/27 11:29:15;;;;;;;18.15;12.43;;;;;;;;;;5051058;28;20229;-56
2023/01/27 11:31:45;;;;;;;20.00;11.95;;;;;;;;;;5057647;28;20213;-57
2023/01/27 11:34:16;;;;;;;17.13;11.77;;;;;;;;;;5057132;28;20213;-57
2023/01/27 11:36:42;;;;;;;15.73;10.77;;;;;;;;;;5057220;28;20602;-57
2023/01/27 11:39:09;;;;;;;16.95;10.98;;;;;;;;;;5056302;28;20220;-57
2023/01/27 11:41:37;;;;;;;14.18;10.27;;;;;;;;;;5047553;28;20214;-58
2023/01/27 11:44:06;;;;;;;14.90;10.73;;;;;;;;;;5054083;28;20378;-58
2023/01/27 11:46:33;;;;;;;17.00;11.30;;;;;;;;;;5050236;28;20501;-57
2023/01/27 11:49:00;;;;;;;19.23;12.25;;;;;;;;;;5053042;28;20276;-57
2023/01/27 11:51:40;;;;;;;14.77;10.48;;;;;;;;;;5055395;28;20255;-56
2023/01/27 11:54:09;;;;;;;15.82;11.07;;;;;;;;;;5049998;28;20209;-56
2023/01/27 11:56:36;;;;;;;15.82;10.77;;;;;;;;;;5057029;28;20228;-56
2023/01/27 11:59:05;;;;;;;18.13;11.30;;;;;;;;;;5048201;28;20548;-57
2023/01/27 12:01:36;;;;;;;17.60;10.82;;;;;;;;;;5053161;28;20216;-58
2023/01/27 12:04:05;;;;;;;20.40;12.90;;;;;;;;;;5057435;28;20221;-58
2023/01/27 12:06:36;;;;;;;20.40;12.85;;;;;;;;;;5054814;28;20203;-58
2023/01/27 12:09:02;;;;;;;18.77;12.02;;;;;;;;;;5058958;28;20239;-57
2023/01/27 12:11:29;;;;;;;20.98;11.38;;;;;;;;;;5059481;28;20209;-57
2023/01/27 12:13:56;;;;;;;16.58;11.18;;;;;;;;;;5058721;28;20275;-58
2023/01/27 12:16:24;;;;;;;16.85;11.15;;;;;;;;;;5057625;28;20382;-56
2023/01/27 12:18:59;;;;;;;17.42;10.75;;;;;;;;;;5057963;28;20213;-57
2023/01/27 12:21:36;;;;;;;16.65;10.57;;;;;;;;;;5052600;28;20208;-57
2023/01/27 12:24:02;;;;;;;13.95;9.93;;;;;;;;;;5058768;28;20216;-56
2023/01/27 12:26:30;;;;;;;14.20;10.18;;;;;;;;;;5060330;28;20213;-56
2023/01/27 12:28:59;;;;;;;14.25;10.15;;;;;;;;;;5055989;28;20232;-56
2023/01/27 12:31:27;;;;;;;14.38;9.20;;;;;;;;;;5059498;28;20274;-56
2023/01/27 12:33:58;;;;;;;14.52;10.25;;;;;;;;;;5059519;28;20213;-55
2023/01/27 12:36:24;;;;;;;14.10;9.68;;;;;;;;;;5053312;28;20209;-56
2023/01/27 12:38:53;;;;;;;13.20;9.95;;;;;;;;;;5054803;28;20447;-56
2023/01/27 12:41:21;;;;;;;13.57;9.18;;;;;;;;;;5058205;28;20505;-55
2023/01/27 12:43:51;;;;;;;13.52;10.07;;;;;;;;;;5056942;28;20213;-57
2023/01/27 12:46:21;;;;;;;14.07;9.68;;;;;;;;;;5059631;28;20209;-58
2023/01/27 12:48:49;;;;;;;13.63;9.88;;;;;;;;;;5058567;28;20213;-59
2023/01/27 12:51:17;;;;;;;12.68;9.27;;;;;;;;;;5057726;28;20327;-57
2023/01/27 12:53:43;;;;;;;15.63;10.30;;;;;;;;;;5058922;28;20255;-58
2023/01/27 12:56:12;;;;;;;12.27;9.38;;;;;;;;;;5058545;28;20439;-57
2023/01/27 12:58:39;;;;;;;12.43;8.73;;;;;;;;;;5048733;28;20568;-58
2023/01/27 13:01:07;;;;;;;14.85;9.88;;;;;;;;;;5053071;28;20256;-58
2023/01/27 13:03:38;;;;;;;16.05;10.68;;;;;;;;;;5055588;28;20220;-59
2023/01/27 13:06:05;;;;;;;12.80;9.70;;;;;;;;;;5057749;28;20259;-59
2023/01/27 13:08:32;;;;;;;14.40;9.63;;;;;;;;;;5058465;28;20370;-58
2023/01/27 13:11:00;;;;;;;12.82;9.75;;;;;;;;;;5055831;28;20213;-59
2023/01/27 13:13:28;;;;;;;14.63;9.85;;;;;;;;;;5058522;28;20223;-58
2023/01/27 13:15:56;;;;;;;13.40;9.23;;;;;;;;;;5058668;28;20447;-59
2023/01/27 13:18:23;;;;;;;15.98;10.57;;;;;;;;;;5050753;28;20259;-57
2023/01/27 13:20:51;;;;;;;15.15;9.80;;;;;;;;;;5058682;28;20209;-57
2023/01/27 13:23:18;;;;;;;16.35;10.88;;;;;;;;;;5058996;28;20216;-58
2023/01/27 13:25:47;;;;;;;16.65;11.60;;;;;;;;;;5059092;28;20470;-57
2023/01/27 13:28:15;;;;;;;17.48;11.57;;;;;;;;;;5058021;28;20236;-58
2023/01/27 13:30:44;;;;;;;16.45;10.95;;;;;;;;;;5056455;28;20219;-56
2023/01/27 13:33:17;;;;;;;17.50;11.35;;;;;;;;;;5057804;28;20247;-57
2023/01/27 13:35:47;;;;;;;17.05;10.98;;;;;;;;;;5050399;28;20259;-59
2023/01/27 13:38:18;;;;;;;17.67;11.68;;;;;;;;;;5058631;28;20486;-58
2023/01/27 13:40:45;;;;;;;21.05;12.65;;;;;;;;;;5053333;28;20571;-58
2023/01/27 13:43:13;;;;;;;18.10;12.13;;;;;;;;;;5054815;28;20213;-57
2023/01/27 13:45:40;;;;;;;20.65;13.15;;;;;;;;;;5054718;28;20455;-59
2023/01/27 13:48:12;;;;;;;21.02;12.98;;;;;;;;;;5054856;28;20213;-58
2023/01/27 13:50:44;;;;;;;22.92;13.52;;;;;;;;;;5050957;28;20212;-57
2023/01/27 13:53:11;;;;;;;21.73;13.55;;;;;;;;;;5049299;28;20213;-57
2023/01/27 13:55:46;;;;;;;22.10;14.30;;;;;;;;;;5049433;28;20512;-58
2023/01/27 13:58:17;;;;;;;23.63;14.45;;;;;;;;;;5047791;28;20252;-57
2023/01/27 14:00:46;;;;;;;25.48;15.43;;;;;;;;;;5039384;28;20217;-57
2023/01/27 14:03:20;;;;;;;22.77;14.55;;;;;;;;;;5045762;28;20224;-58
2023/01/27 14:05:54;;;;;;;26.60;16.20;;;;;;;;;;5051739;28;20224;-57
2023/01/27 14:08:37;;;;;;;24.25;14.70;;;;;;;;;;5052718;28;20517;-57
2023/01/27 14:11:10;;;;;;;26.35;15.57;;;;;;;;;;5054248;28;20258;-57
2023/01/27 14:13:45;;;;;;;28.95;15.75;;;;;;;;;;5045497;28;20271;-57
2023/01/27 14:16:16;;;;;;;27.75;16.90;;;;;;;;;;5042980;28;20603;-57
2023/01/27 14:18:46;;;;;;;26.63;15.70;;;;;;;;;;5037421;28;20238;-57
2023/01/27 14:21:21;;;;;;;27.98;16.40;;;;;;;;;;5052555;28;20486;-56
2023/01/27 14:23:59;;;;;;;27.77;16.00;;;;;;;;;;5054929;28;20263;-57
2023/01/27 14:26:34;;;;;;;30.70;16.95;;;;;;;;;;5047364;28;20453;-56
2023/01/27 14:29:05;;;;;;;27.95;16.52;;;;;;;;;;5042189;28;20225;-57
2023/01/27 14:31:37;;;;;;;28.75;16.75;;;;;;;;;;5041397;28;20214;-57
2023/01/27 14:34:09;;;;;;;26.60;16.27;;;;;;;;;;5043356;28;20218;-58
2023/01/27 14:36:41;;;;;;;28.83;17.85;;;;;;;;;;5052124;28;20209;-58
2023/01/27 14:39:15;;;;;;;30.77;18.48;;;;;;;;;;5054716;28;20237;-58
2023/01/27 14:41:45;;;;;;;28.38;17.50;;;;;;;;;;5054426;28;20216;-58
2023/01/27 14:44:15;;;;;;;31.67;17.38;;;;;;;;;;5048748;28;20217;-56
2023/01/27 14:46:52;;;;;;;31.33;17.25;;;;;;;;;;5049845;28;20244;-57
2023/01/27 14:49:22;;;;;;;31.48;17.27;;;;;;;;;;5053503;28;20509;-57
2023/01/27 14:51:51;;;;;;;31.50;18.13;;;;;;;;;;5057628;28;20462;-57
2023/01/27 14:54:25;;;;;;;28.95;17.02;;;;;;;;;;5055094;28;20854;-55
2023/01/27 14:57:01;;;;;;;27.85;16.58;;;;;;;;;;5056070;28;20208;-58